Time;durP1;ratioP1;P1;durP2;ratioP2;P2;SDS_P1;SDS_P2;PMS_P1;PMS_P2;Temp;Humidity;BMP_temperature;BMP_pressure;BME280_temperature;BME280_humidity;BME280_pressure;Samples;Min_cycle;Max_cycle;Signal;HPM_P1;HPM_P2
2022/01/04 00:01:51;;;;;;;101.07;94.83;;;10.00;99.90;;;;;;5000696;28;20604;-79
2022/01/04 00:04:16;;;;;;;103.57;96.67;;;10.00;99.90;;;;;;4991700;28;20191;-79
2022/01/04 00:06:45;;;;;;;99.80;93.93;;;10.00;99.90;;;;;;4984064;28;20195;-81
2022/01/04 00:09:11;;;;;;;97.63;92.07;;;10.00;99.90;;;;;;4987989;28;21011;-79
2022/01/04 00:11:58;;;;;;;98.63;92.63;;;9.90;99.90;;;;;;5003070;28;20307;-79
2022/01/04 00:14:24;;;;;;;100.03;94.03;;;10.00;99.90;;;;;;4992494;28;20189;-78
2022/01/04 00:16:50;;;;;;;99.60;93.67;;;10.00;99.90;;;;;;5006009;28;20197;-80
2022/01/04 00:19:17;;;;;;;98.50;92.67;;;10.00;99.90;;;;;;5003394;28;20195;-81
2022/01/04 00:21:43;;;;;;;100.23;94.00;;;10.00;99.90;;;;;;5004425;28;20187;-78
2022/01/04 00:24:09;;;;;;;98.90;93.20;;;9.90;99.90;;;;;;5020027;28;20560;-80
2022/01/04 00:26:35;;;;;;;101.40;94.87;;;10.00;99.90;;;;;;4989880;28;20277;-80
2022/01/04 00:29:00;;;;;;;99.97;93.60;;;10.00;99.90;;;;;;4979731;28;20296;-80
2022/01/04 00:31:26;;;;;;;98.27;92.77;;;10.00;99.90;;;;;;5002653;28;20228;-79
2022/01/04 00:33:52;;;;;;;99.83;94.23;;;10.00;99.90;;;;;;5020845;28;20660;-80
2022/01/04 00:36:17;;;;;;;100.50;94.63;;;10.00;99.90;;;;;;5003392;28;20683;-80
2022/01/04 00:38:43;;;;;;;102.97;96.53;;;10.00;99.90;;;;;;5020230;28;20196;-80
2022/01/04 00:41:09;;;;;;;100.47;94.57;;;10.00;99.90;;;;;;5003122;28;20187;-80
2022/01/04 00:43:35;;;;;;;102.10;96.27;;;10.00;99.90;;;;;;5018899;28;20217;-79
2022/01/04 00:46:01;;;;;;;102.17;96.23;;;9.90;99.90;;;;;;4986385;28;20198;-80
2022/01/04 00:50:53;;;;;;;101.60;95.40;;;9.90;99.90;;;;;;5024246;28;20191;-80
2022/01/04 00:53:20;;;;;;;98.93;93.17;;;9.90;99.90;;;;;;4991440;28;20215;-79
2022/01/04 00:55:45;;;;;;;100.00;94.10;;;9.90;99.90;;;;;;5023978;28;20281;-79
2022/01/04 00:58:11;;;;;;;101.13;95.40;;;10.00;99.90;;;;;;4991367;28;20302;-79
2022/01/04 01:00:37;;;;;;;99.50;93.77;;;9.90;99.90;;;;;;5013025;28;20186;-79
2022/01/04 01:03:03;;;;;;;100.17;94.23;;;9.90;99.90;;;;;;5020682;28;20198;-80
2022/01/04 01:05:32;;;;;;;98.00;92.33;;;9.90;99.90;;;;;;5007531;28;20195;-79
2022/01/04 01:07:57;;;;;;;100.97;95.10;;;9.90;99.90;;;;;;5021200;28;20195;-79
2022/01/04 01:12:57;;;;;;;101.00;95.30;;;9.80;99.90;;;;;;5004295;28;20270;-79
2022/01/04 01:15:24;;;;;;;100.87;94.93;;;9.80;99.90;;;;;;5001723;28;20600;-78
2022/01/04 01:17:50;;;;;;;98.10;92.40;;;9.80;99.90;;;;;;5004582;28;20183;-80
2022/01/04 01:20:17;;;;;;;98.70;93.20;;;9.80;99.90;;;;;;5006931;28;20250;-80
2022/01/04 01:22:43;;;;;;;99.37;93.80;;;9.80;99.90;;;;;;5004716;28;20210;-80
2022/01/04 01:25:10;;;;;;;98.67;92.97;;;9.80;99.90;;;;;;5003351;28;20207;-79
2022/01/04 01:27:36;;;;;;;102.50;96.13;;;9.80;99.90;;;;;;5004087;28;20629;-79
2022/01/04 01:30:02;;;;;;;102.93;96.87;;;9.90;99.90;;;;;;5002551;28;20231;-78
2022/01/04 01:32:29;;;;;;;99.30;93.93;;;9.80;99.90;;;;;;5001538;28;20207;-78
2022/01/04 01:34:55;;;;;;;100.43;94.27;;;9.80;99.90;;;;;;4989739;28;20704;-79
2022/01/04 01:37:20;;;;;;;100.77;95.07;;;9.80;99.90;;;;;;4970398;28;20200;-79
2022/01/04 01:39:47;;;;;;;101.70;95.80;;;9.70;99.90;;;;;;5004386;28;20227;-79
2022/01/04 01:42:13;;;;;;;100.80;94.90;;;9.70;99.90;;;;;;4986808;28;20244;-79
2022/01/04 01:44:38;;;;;;;100.70;95.00;;;9.70;99.90;;;;;;5001663;28;20221;-79
2022/01/04 01:47:04;;;;;;;99.60;93.87;;;9.70;99.90;;;;;;4986067;28;20210;-79
2022/01/04 01:49:30;;;;;;;99.73;93.93;;;9.70;99.90;;;;;;5003975;28;20220;-79
2022/01/04 01:51:57;;;;;;;101.40;95.20;;;9.70;99.90;;;;;;5002596;28;20201;-79
2022/01/04 01:54:23;;;;;;;99.37;93.60;;;9.70;99.90;;;;;;5002717;28;20204;-79
2022/01/04 01:56:50;;;;;;;102.57;96.67;;;9.70;99.90;;;;;;5002370;28;20223;-79
2022/01/04 01:59:16;;;;;;;101.87;95.70;;;9.60;99.90;;;;;;5007922;28;20279;-77
2022/01/04 02:01:42;;;;;;;101.33;95.53;;;9.70;99.90;;;;;;5002087;28;20789;-80
2022/01/04 02:04:08;;;;;;;101.90;95.30;;;9.70;99.90;;;;;;5003562;28;20763;-80
2022/01/04 02:06:35;;;;;;;99.93;93.80;;;9.60;99.90;;;;;;4986629;28;20669;-80
2022/01/04 02:09:02;;;;;;;99.83;94.03;;;9.60;99.90;;;;;;4986762;28;20334;-80
2022/01/04 02:11:29;;;;;;;98.93;93.20;;;9.60;99.90;;;;;;5000882;28;20251;-81
2022/01/04 02:13:58;;;;;;;98.50;92.20;;;9.60;99.90;;;;;;4999614;28;20201;-80
2022/01/04 02:16:25;;;;;;;101.17;94.87;;;9.60;99.90;;;;;;4987395;28;20230;-81
2022/01/04 02:18:51;;;;;;;99.43;93.33;;;9.60;99.90;;;;;;5001337;28;20222;-81
2022/01/04 02:21:17;;;;;;;101.60;95.57;;;9.60;99.90;;;;;;4988164;28;20661;-80
2022/01/04 02:23:43;;;;;;;101.03;94.93;;;9.60;99.90;;;;;;5003141;28;20188;-81
2022/01/04 02:26:09;;;;;;;99.30;93.50;;;9.60;99.90;;;;;;5002174;28;20204;-79
2022/01/04 02:28:35;;;;;;;100.77;94.87;;;9.60;99.90;;;;;;4969402;28;20624;-79
2022/01/04 02:31:01;;;;;;;99.67;93.30;;;9.60;99.90;;;;;;5003183;28;20196;-79
2022/01/04 02:33:27;;;;;;;100.70;94.30;;;9.60;99.90;;;;;;5005776;28;20207;-79
2022/01/04 02:35:52;;;;;;;99.60;93.23;;;9.50;99.90;;;;;;4987380;28;20191;-80
2022/01/04 02:38:18;;;;;;;100.47;94.57;;;9.60;99.90;;;;;;4985008;28;20188;-81
2022/01/04 02:40:44;;;;;;;97.67;91.97;;;9.60;99.90;;;;;;4983969;28;20200;-79
2022/01/04 02:43:09;;;;;;;101.77;95.10;;;9.60;99.90;;;;;;4992560;28;20955;-80
2022/01/04 02:45:35;;;;;;;100.07;93.90;;;9.60;99.90;;;;;;4984542;28;20577;-79
2022/01/04 02:48:01;;;;;;;96.77;90.77;;;9.60;99.90;;;;;;5020445;28;20199;-81
2022/01/04 02:50:27;;;;;;;100.47;93.93;;;9.60;99.90;;;;;;5004274;28;20598;-80
2022/01/04 02:52:52;;;;;;;101.03;94.40;;;9.60;99.90;;;;;;4986532;28;20706;-81
2022/01/04 02:55:18;;;;;;;100.93;94.97;;;9.60;99.90;;;;;;5002704;28;20200;-81
2022/01/04 02:57:45;;;;;;;101.10;95.27;;;9.60;99.90;;;;;;5017131;28;20960;-81
2022/01/04 03:00:13;;;;;;;101.10;95.00;;;9.60;99.90;;;;;;5001455;28;20191;-81
2022/01/04 03:02:40;;;;;;;99.20;93.50;;;9.60;99.90;;;;;;4986465;28;20204;-79
2022/01/04 03:05:07;;;;;;;100.53;94.10;;;9.60;99.90;;;;;;4986989;28;20199;-80
2022/01/04 03:07:33;;;;;;;98.50;92.87;;;9.60;99.90;;;;;;5008154;28;20191;-80
2022/01/04 03:09:58;;;;;;;98.30;92.50;;;9.60;99.90;;;;;;4984090;28;20721;-80
2022/01/04 03:12:24;;;;;;;98.53;92.03;;;9.60;99.90;;;;;;5001095;28;20208;-81
2022/01/04 03:14:50;;;;;;;99.17;93.17;;;9.60;99.90;;;;;;4984691;28;20219;-80
2022/01/04 03:17:16;;;;;;;97.50;91.93;;;9.60;99.90;;;;;;4997467;28;20207;-79
2022/01/04 03:19:42;;;;;;;99.47;93.77;;;9.60;99.90;;;;;;5001972;28;20199;-81
2022/01/04 03:22:07;;;;;;;99.47;93.77;;;9.60;99.90;;;;;;4986248;28;20196;-81
2022/01/04 03:24:33;;;;;;;97.83;92.03;;;9.50;99.90;;;;;;5000891;28;20204;-80
2022/01/04 03:26:59;;;;;;;96.57;90.97;;;9.60;99.90;;;;;;5000601;28;20304;-81
2022/01/04 03:29:25;;;;;;;98.13;92.33;;;9.60;99.90;;;;;;5002182;28;20224;-80
2022/01/04 03:31:52;;;;;;;97.47;91.57;;;9.60;99.90;;;;;;5000853;28;20203;-79
2022/01/04 03:34:18;;;;;;;98.27;92.37;;;9.60;99.90;;;;;;4984771;28;20199;-80
2022/01/04 03:36:44;;;;;;;98.70;93.00;;;9.60;99.90;;;;;;5000359;28;20180;-81
2022/01/04 03:39:11;;;;;;;98.97;93.37;;;9.60;99.90;;;;;;4999104;28;20207;-80
2022/01/04 03:41:40;;;;;;;98.90;93.13;;;9.60;99.90;;;;;;5003652;28;20212;-81
2022/01/04 03:44:16;;;;;;;100.03;93.83;;;9.60;99.90;;;;;;5002149;28;20196;-80
2022/01/04 03:46:42;;;;;;;97.40;92.00;;;9.60;99.90;;;;;;5001706;28;20175;-80
2022/01/04 03:49:08;;;;;;;107.87;101.60;;;9.60;99.90;;;;;;5016323;28;20846;-80
2022/01/04 03:51:33;;;;;;;181.23;171.53;;;9.60;99.90;;;;;;5000172;28;20207;-80
2022/01/04 03:53:59;;;;;;;295.60;278.97;;;9.50;99.90;;;;;;4983236;28;20238;-80
2022/01/04 03:56:25;;;;;;;322.23;303.23;;;9.40;99.90;;;;;;4969997;28;20817;-80
2022/01/04 03:58:50;;;;;;;303.00;285.57;;;9.30;99.90;;;;;;4983257;28;20317;-81
2022/01/04 04:01:16;;;;;;;394.20;369.47;;;9.30;99.90;;;;;;4983570;28;20196;-80
2022/01/04 04:03:42;;;;;;;422.00;394.97;;;9.20;99.90;;;;;;5000696;28;20648;-81
2022/01/04 04:06:07;;;;;;;433.20;405.40;;;9.10;99.90;;;;;;4985440;28;20187;-80
2022/01/04 04:08:33;;;;;;;518.50;482.43;;;9.20;99.90;;;;;;5017307;28;20235;-80
2022/01/04 04:10:59;;;;;;;514.87;479.07;;;9.10;99.90;;;;;;4987471;28;20526;-80
2022/01/04 04:13:24;;;;;;;502.37;467.47;;;9.10;99.90;;;;;;4971318;28;20205;-80
2022/01/04 04:15:50;;;;;;;501.73;466.97;;;9.10;99.90;;;;;;4966876;28;20918;-80
2022/01/04 04:18:17;;;;;;;498.90;464.43;;;9.10;99.90;;;;;;4964544;28;20334;-81
2022/01/04 04:20:43;;;;;;;488.20;454.37;;;9.10;99.90;;;;;;4981330;28;20192;-81
2022/01/04 04:23:10;;;;;;;451.97;420.73;;;9.10;99.90;;;;;;4983842;28;20192;-79
2022/01/04 04:25:36;;;;;;;448.57;418.10;;;9.20;99.90;;;;;;4985759;28;20251;-80
2022/01/04 04:28:02;;;;;;;434.60;405.47;;;9.20;99.90;;;;;;5002265;28;20219;-80
2022/01/04 04:30:28;;;;;;;431.07;403.17;;;9.20;99.90;;;;;;4987420;28;20234;-80
2022/01/04 04:32:53;;;;;;;417.10;390.10;;;9.20;99.90;;;;;;4987081;28;20918;-81
2022/01/04 04:35:19;;;;;;;406.50;380.13;;;9.20;99.90;;;;;;4968871;28;20290;-79
2022/01/04 04:37:45;;;;;;;397.00;371.33;;;9.20;99.90;;;;;;4951919;28;20189;-81
2022/01/04 04:40:11;;;;;;;393.80;368.53;;;9.20;99.90;;;;;;4989313;28;20192;-81
2022/01/04 04:42:37;;;;;;;388.70;363.23;;;9.20;99.90;;;;;;4984818;28;20222;-80
2022/01/04 04:45:04;;;;;;;391.77;366.57;;;9.20;99.90;;;;;;4983646;28;20279;-80
2022/01/04 04:47:29;;;;;;;390.23;365.77;;;9.20;99.90;;;;;;4968785;28;20544;-81
2022/01/04 04:49:55;;;;;;;383.23;358.30;;;9.20;99.90;;;;;;4982732;28;20274;-79
2022/01/04 04:52:22;;;;;;;381.47;357.07;;;9.20;99.90;;;;;;4985176;28;20207;-81
2022/01/04 04:54:48;;;;;;;380.97;356.97;;;9.20;99.90;;;;;;4968869;28;20280;-80
2022/01/04 04:57:14;;;;;;;365.47;342.53;;;9.20;99.90;;;;;;5001509;28;20296;-81
2022/01/04 04:59:39;;;;;;;365.80;342.53;;;9.30;99.90;;;;;;4965770;28;20629;-81
2022/01/04 05:02:07;;;;;;;368.20;344.97;;;9.30;99.90;;;;;;4982671;28;20191;-80
2022/01/04 05:04:36;;;;;;;363.33;340.50;;;9.30;99.90;;;;;;4968379;28;20769;-81
2022/01/04 05:07:02;;;;;;;359.23;337.47;;;9.30;99.90;;;;;;4965191;28;20200;-81
2022/01/04 05:09:28;;;;;;;359.27;337.47;;;9.30;99.90;;;;;;4964952;28;20753;-80
2022/01/04 05:11:54;;;;;;;352.77;331.23;;;9.40;99.90;;;;;;5000735;28;20291;-80
2022/01/04 05:14:20;;;;;;;359.33;337.60;;;9.30;99.90;;;;;;5002542;28;20191;-80
2022/01/04 05:16:45;;;;;;;359.17;337.27;;;9.30;99.90;;;;;;4970305;28;20211;-80
2022/01/04 05:19:11;;;;;;;363.00;340.77;;;9.30;99.90;;;;;;4992281;28;20745;-80
2022/01/04 05:21:37;;;;;;;362.40;339.83;;;9.20;99.90;;;;;;4987168;28;20242;-80
2022/01/04 05:24:03;;;;;;;431.43;403.20;;;9.10;99.90;;;;;;4972738;28;20192;-80
2022/01/04 05:26:29;;;;;;;450.57;420.77;;;9.00;99.90;;;;;;5019330;28;20559;-80
2022/01/04 05:28:55;;;;;;;559.47;521.83;;;9.00;99.90;;;;;;4984508;28;20212;-81
2022/01/04 05:31:20;;;;;;;560.37;522.43;;;8.90;99.90;;;;;;5003269;28;20578;-80
2022/01/04 05:33:46;;;;;;;502.80;469.37;;;8.90;99.90;;;;;;4985432;28;20228;-79
2022/01/04 05:36:12;;;;;;;590.97;550.50;;;8.80;99.90;;;;;;5018552;28;20279;-80
2022/01/04 05:38:37;;;;;;;592.50;552.67;;;8.80;99.90;;;;;;5004514;28;20213;-79
2022/01/04 05:41:04;;;;;;;557.67;520.90;;;8.80;99.90;;;;;;4986875;28;20183;-80
2022/01/04 05:43:30;;;;;;;560.47;522.93;;;8.70;99.90;;;;;;4990676;28;20204;-79
2022/01/04 05:45:55;;;;;;;576.87;537.10;;;8.70;99.90;;;;;;5002436;28;20203;-80
2022/01/04 05:48:21;;;;;;;517.60;482.63;;;8.70;99.90;;;;;;4970536;28;20211;-80
2022/01/04 05:50:48;;;;;;;482.93;450.33;;;8.70;99.90;;;;;;5003106;28;20711;-81
2022/01/04 05:53:14;;;;;;;469.40;438.80;;;8.70;99.90;;;;;;4986750;28;20567;-78
2022/01/04 05:55:40;;;;;;;461.30;430.70;;;8.80;99.90;;;;;;4988317;28;20197;-81
2022/01/04 05:58:06;;;;;;;458.53;428.97;;;8.80;99.90;;;;;;4987907;28;20221;-81
2022/01/04 06:00:31;;;;;;;457.70;428.10;;;8.80;99.90;;;;;;5003464;28;20199;-80
2022/01/04 06:03:00;;;;;;;454.97;425.30;;;8.80;99.90;;;;;;5004807;28;20199;-81
2022/01/04 06:05:26;;;;;;;448.30;419.47;;;8.90;99.90;;;;;;5003693;28;20614;-81
2022/01/04 06:07:52;;;;;;;452.33;423.60;;;8.90;99.90;;;;;;4990189;28;20573;-80
2022/01/04 06:10:18;;;;;;;449.17;420.13;;;8.90;99.90;;;;;;4985597;28;20321;-81
2022/01/04 06:15:14;;;;;;;441.90;414.57;;;8.90;99.90;;;;;;5002271;28;20197;-79
2022/01/04 06:17:42;;;;;;;437.07;410.07;;;8.90;99.90;;;;;;5001197;28;20610;-80
2022/01/04 06:20:10;;;;;;;429.77;403.10;;;8.90;99.90;;;;;;5001168;28;20187;-81
2022/01/04 06:22:39;;;;;;;424.60;398.60;;;9.00;99.90;;;;;;4985828;28;20695;-81
2022/01/04 06:25:09;;;;;;;411.67;386.90;;;9.00;99.90;;;;;;4986173;28;20669;-81
2022/01/04 06:27:35;;;;;;;410.40;385.10;;;9.00;99.90;;;;;;5003602;28;20231;-79
2022/01/04 06:30:01;;;;;;;400.83;376.27;;;9.00;99.90;;;;;;4971342;28;20685;-79
2022/01/04 06:32:26;;;;;;;402.70;378.03;;;8.90;99.90;;;;;;5002596;28;20670;-81
2022/01/04 06:34:53;;;;;;;397.20;372.73;;;8.90;99.90;;;;;;5000883;28;20195;-80
2022/01/04 06:37:19;;;;;;;390.57;366.93;;;8.90;99.90;;;;;;5000786;28;20238;-81
2022/01/04 06:39:45;;;;;;;392.40;368.83;;;8.90;99.90;;;;;;5003554;28;20187;-81
2022/01/04 06:42:12;;;;;;;384.20;361.37;;;8.90;99.90;;;;;;5001962;28;20211;-80
2022/01/04 06:44:38;;;;;;;375.00;352.60;;;9.00;99.90;;;;;;5000488;28;20192;-81
2022/01/04 06:47:04;;;;;;;376.30;353.83;;;9.00;99.90;;;;;;5002668;28;20195;-81
2022/01/04 06:49:31;;;;;;;379.37;356.63;;;8.90;99.90;;;;;;5000389;28;20323;-80
2022/01/04 06:51:56;;;;;;;367.93;345.50;;;9.00;99.90;;;;;;5001364;28;20187;-79
2022/01/04 06:54:23;;;;;;;368.00;345.80;;;9.00;99.90;;;;;;5001973;28;20577;-79
2022/01/04 06:56:49;;;;;;;361.33;339.20;;;8.90;99.90;;;;;;5002367;28;20746;-81
2022/01/04 06:59:18;;;;;;;361.50;339.57;;;9.00;99.90;;;;;;5001900;28;20202;-81
2022/01/04 07:01:44;;;;;;;354.60;333.47;;;9.00;99.90;;;;;;5003567;28;20204;-80
2022/01/04 07:04:10;;;;;;;342.77;322.37;;;8.90;99.90;;;;;;5000716;28;20708;-80
2022/01/04 07:06:36;;;;;;;352.77;331.27;;;9.00;99.90;;;;;;5000392;28;20196;-80
2022/01/04 07:09:05;;;;;;;341.57;321.20;;;8.90;99.90;;;;;;5001310;28;20219;-81
2022/01/04 07:11:31;;;;;;;325.97;306.10;;;9.00;99.90;;;;;;5000586;28;20238;-81
2022/01/04 07:13:56;;;;;;;321.40;301.83;;;9.00;99.90;;;;;;4999035;28;20189;-81
2022/01/04 07:16:22;;;;;;;315.47;296.47;;;9.00;99.90;;;;;;5001825;28;20671;-80
2022/01/04 07:18:49;;;;;;;313.53;294.43;;;9.00;99.90;;;;;;4998012;28;20683;-80
2022/01/04 07:21:18;;;;;;;308.73;290.23;;;9.00;99.90;;;;;;5001893;28;20211;-80
2022/01/04 07:23:46;;;;;;;305.40;287.07;;;9.00;99.90;;;;;;4983154;28;20678;-79
2022/01/04 07:26:14;;;;;;;306.33;287.70;;;9.00;99.90;;;;;;5007427;28;20391;-80
2022/01/04 07:28:41;;;;;;;305.33;287.23;;;8.90;99.90;;;;;;5003225;28;20566;-80
2022/01/04 07:31:08;;;;;;;298.83;280.33;;;8.90;99.90;;;;;;4983807;28;20197;-81
2022/01/04 07:33:34;;;;;;;287.63;270.53;;;8.90;99.90;;;;;;4985696;28;20192;-80
2022/01/04 07:36:01;;;;;;;288.80;271.43;;;9.00;99.90;;;;;;5003191;28;20191;-80
2022/01/04 07:38:27;;;;;;;279.97;263.53;;;8.90;99.90;;;;;;4984158;28;20194;-78
2022/01/04 07:40:53;;;;;;;272.80;256.67;;;8.90;99.90;;;;;;4991495;28;20200;-80
2022/01/04 07:43:18;;;;;;;259.50;244.33;;;8.90;99.90;;;;;;4984616;28;20215;-80
2022/01/04 07:45:44;;;;;;;248.07;233.17;;;8.90;99.90;;;;;;4997896;28;20278;-80
2022/01/04 07:48:10;;;;;;;239.17;224.97;;;9.00;99.90;;;;;;4966779;28;20537;-80
2022/01/04 07:50:43;;;;;;;231.10;217.17;;;9.00;99.90;;;;;;4983247;28;20216;-81
2022/01/04 07:53:08;;;;;;;230.30;217.20;;;9.00;99.90;;;;;;4984108;28;20184;-81
2022/01/04 07:55:35;;;;;;;226.73;213.07;;;8.90;99.90;;;;;;4986043;28;20198;-81
2022/01/04 07:58:01;;;;;;;305.93;288.47;;;8.90;99.90;;;;;;4998220;28;20207;-80
2022/01/04 08:00:27;;;;;;;350.27;329.27;;;8.90;99.90;;;;;;4999299;28;20203;-81
2022/01/04 08:02:54;;;;;;;397.93;372.23;;;8.90;99.90;;;;;;5002880;28;20298;-80
2022/01/04 08:05:20;;;;;;;420.13;393.27;;;8.90;99.90;;;;;;5001188;28;20676;-81
2022/01/04 08:07:46;;;;;;;563.10;525.93;;;8.80;99.90;;;;;;5000525;28;20200;-82
2022/01/04 08:10:13;;;;;;;615.97;572.83;;;8.80;99.90;;;;;;4966453;28;20924;-79
2022/01/04 08:12:40;;;;;;;644.47;598.20;;;8.70;99.90;;;;;;4983657;28;20200;-79
2022/01/04 08:15:06;;;;;;;629.30;582.67;;;8.70;99.90;;;;;;5000028;28;20175;-80
2022/01/04 08:17:33;;;;;;;639.63;593.20;;;8.60;99.90;;;;;;4998788;28;20192;-80
2022/01/04 08:20:00;;;;;;;626.63;580.43;;;8.60;99.90;;;;;;5000358;28;20191;-80
2022/01/04 08:22:32;;;;;;;610.73;564.23;;;8.50;99.90;;;;;;4998055;28;20196;-80
2022/01/04 08:25:03;;;;;;;589.67;543.77;;;8.50;99.90;;;;;;5001222;28;20184;-80
2022/01/04 08:27:30;;;;;;;593.93;547.90;;;8.40;99.90;;;;;;5002613;28;20685;-80
2022/01/04 08:29:56;;;;;;;587.03;541.47;;;8.40;99.90;;;;;;4997407;28;20219;-79
2022/01/04 08:32:22;;;;;;;575.07;529.40;;;8.40;99.90;;;;;;4998559;28;20230;-81
2022/01/04 08:34:48;;;;;;;583.00;537.53;;;8.40;99.90;;;;;;5002215;28;20203;-81
2022/01/04 08:37:14;;;;;;;586.13;540.43;;;8.30;99.90;;;;;;4966233;28;20195;-81
2022/01/04 08:39:40;;;;;;;601.27;554.60;;;8.30;99.90;;;;;;4999113;28;20541;-81
2022/01/04 08:42:06;;;;;;;607.47;560.20;;;8.30;99.90;;;;;;4982712;28;20286;-79
2022/01/04 08:44:33;;;;;;;606.93;559.53;;;8.30;99.90;;;;;;5000257;28;20199;-80
2022/01/04 08:46:59;;;;;;;604.43;557.30;;;8.30;99.90;;;;;;4998998;28;20188;-78
2022/01/04 08:49:25;;;;;;;605.60;558.73;;;8.30;99.90;;;;;;4996522;28;20219;-81
2022/01/04 08:51:51;;;;;;;617.87;570.80;;;8.40;99.90;;;;;;5001528;28;20637;-80
2022/01/04 08:54:17;;;;;;;595.47;549.77;;;8.40;99.90;;;;;;4981939;28;20191;-80
2022/01/04 08:56:43;;;;;;;605.10;558.80;;;8.40;99.90;;;;;;4996083;28;20200;-80
2022/01/04 08:59:10;;;;;;;608.30;562.13;;;8.50;99.90;;;;;;4998135;28;20199;-80
2022/01/04 09:01:37;;;;;;;604.00;558.17;;;8.60;99.90;;;;;;4997873;28;20194;-80
2022/01/04 09:04:03;;;;;;;596.77;551.37;;;8.60;99.90;;;;;;4998174;28;20207;-80
2022/01/04 09:06:30;;;;;;;594.97;549.73;;;8.60;99.90;;;;;;4998840;28;20227;-79
2022/01/04 09:08:56;;;;;;;587.07;541.83;;;8.60;99.90;;;;;;4986457;28;20661;-79
2022/01/04 09:11:25;;;;;;;546.60;506.47;;;8.70;99.90;;;;;;5013727;28;20708;-80
2022/01/04 09:14:00;;;;;;;536.10;496.07;;;8.60;99.90;;;;;;5002407;28;20245;-80
2022/01/04 09:19:10;;;;;;;538.50;500.20;;;8.70;99.90;;;;;;5016566;28;20952;-79
2022/01/04 09:21:37;;;;;;;541.43;502.87;;;8.70;99.90;;;;;;5001980;28;20214;-81
2022/01/04 09:24:05;;;;;;;514.40;476.23;;;8.70;99.90;;;;;;5018215;28;20215;-79
2022/01/04 09:26:31;;;;;;;519.33;481.17;;;8.70;99.90;;;;;;5002799;28;20286;-80
2022/01/04 09:28:57;;;;;;;528.07;491.30;;;8.80;99.90;;;;;;5002676;28;20643;-79
2022/01/04 09:31:25;;;;;;;505.03;468.37;;;8.80;99.90;;;;;;5015925;28;20195;-80
2022/01/04 09:33:51;;;;;;;499.43;462.63;;;8.90;99.90;;;;;;5018117;28;20603;-80
2022/01/04 09:36:17;;;;;;;488.47;452.93;;;8.90;99.90;;;;;;5002365;28;20187;-79
2022/01/04 09:38:43;;;;;;;489.60;453.93;;;8.90;99.90;;;;;;5000284;28;20187;-80
2022/01/04 09:41:09;;;;;;;481.83;446.53;;;8.90;99.90;;;;;;5003799;28;20185;-80
2022/01/04 09:43:34;;;;;;;484.17;448.63;;;8.90;99.90;;;;;;4994547;28;20268;-80
2022/01/04 09:46:00;;;;;;;483.50;448.13;;;9.00;99.90;;;;;;5003728;28;20183;-79
2022/01/04 09:48:27;;;;;;;481.20;445.87;;;9.00;99.90;;;;;;5002677;28;20189;-81
2022/01/04 09:50:55;;;;;;;474.10;439.77;;;9.00;99.90;;;;;;5010080;28;20560;-80
2022/01/04 09:53:22;;;;;;;475.60;441.23;;;9.00;99.90;;;;;;5006318;28;20806;-79
2022/01/04 09:55:50;;;;;;;468.33;434.63;;;8.90;99.90;;;;;;5000901;28;20183;-80
2022/01/04 09:58:18;;;;;;;450.03;418.50;;;8.90;99.90;;;;;;5004057;28;20686;-79
2022/01/04 10:00:44;;;;;;;429.93;399.10;;;9.00;99.90;;;;;;5002397;28;20187;-80
2022/01/04 10:03:19;;;;;;;436.97;405.33;;;8.90;99.90;;;;;;4985644;28;20195;-78
2022/01/04 10:05:46;;;;;;;447.00;414.33;;;8.90;99.90;;;;;;5000332;28;20194;-78
2022/01/04 10:08:13;;;;;;;436.60;404.50;;;8.90;99.90;;;;;;5000134;28;20230;-78
2022/01/04 10:10:40;;;;;;;441.67;409.53;;;8.90;99.90;;;;;;5014940;28;20256;-79
2022/01/04 10:13:09;;;;;;;449.40;417.13;;;8.90;99.90;;;;;;5007608;28;20191;-80
2022/01/04 10:15:50;;;;;;;460.00;427.80;;;8.90;99.90;;;;;;5003041;28;20184;-81
2022/01/04 10:18:21;;;;;;;453.53;421.93;;;8.90;99.90;;;;;;5001465;28;20734;-81
2022/01/04 10:20:57;;;;;;;449.63;416.50;;;8.90;99.90;;;;;;5002075;28;20230;-81
2022/01/04 10:23:25;;;;;;;470.53;436.07;;;8.90;99.90;;;;;;5000504;28;20209;-80
2022/01/04 10:25:52;;;;;;;612.47;565.70;;;8.90;99.90;;;;;;5002865;28;20202;-81
2022/01/04 10:28:47;;;;;;;604.60;557.93;;;8.90;99.90;;;;;;5000348;28;20219;-80
2022/01/04 10:31:16;;;;;;;526.07;486.00;;;8.90;99.90;;;;;;4991944;28;20216;-80
2022/01/04 10:33:42;;;;;;;605.60;557.83;;;8.90;99.90;;;;;;5000134;28;20658;-79
2022/01/04 10:36:12;;;;;;;616.97;569.30;;;8.90;99.90;;;;;;4999921;28;20553;-80
2022/01/04 10:38:44;;;;;;;624.67;576.30;;;8.90;99.90;;;;;;5016022;28;20634;-78
2022/01/04 10:41:16;;;;;;;616.10;567.73;;;8.90;99.90;;;;;;5002271;28;20773;-80
2022/01/04 10:43:45;;;;;;;619.10;570.27;;;9.00;99.90;;;;;;4997827;28;20212;-79
2022/01/04 10:46:14;;;;;;;631.43;583.07;;;8.90;99.90;;;;;;5000414;28;20184;-80
2022/01/04 10:48:48;;;;;;;618.43;569.90;;;8.90;99.90;;;;;;5003356;28;20203;-78
2022/01/04 10:51:22;;;;;;;622.30;573.87;;;8.90;99.90;;;;;;5002895;28;20192;-80
2022/01/04 10:53:52;;;;;;;616.43;567.60;;;8.80;99.90;;;;;;5000023;28;20187;-80
2022/01/04 10:56:32;;;;;;;629.23;580.27;;;8.80;99.90;;;;;;5008898;28;20633;-79
2022/01/04 10:59:10;;;;;;;621.00;572.20;;;8.80;99.90;;;;;;5008639;28;20214;-79
2022/01/04 11:01:49;;;;;;;631.17;582.30;;;8.80;99.90;;;;;;5002528;28;20203;-79
2022/01/04 11:04:18;;;;;;;621.60;573.10;;;8.80;99.90;;;;;;5004379;28;20184;-80
2022/01/04 11:06:44;;;;;;;621.30;573.30;;;8.80;99.90;;;;;;5001439;28;20184;-80
2022/01/04 11:09:12;;;;;;;626.63;578.10;;;8.80;99.90;;;;;;5001968;28;20318;-81
2022/01/04 11:11:40;;;;;;;629.80;581.07;;;8.80;99.90;;;;;;4984945;28;20389;-79
2022/01/04 11:14:08;;;;;;;613.93;565.93;;;8.70;99.90;;;;;;4985110;28;20258;-81
2022/01/04 11:16:33;;;;;;;619.80;571.17;;;8.70;99.90;;;;;;5016884;28;20226;-81
2022/01/04 11:19:02;;;;;;;641.40;593.03;;;8.70;99.90;;;;;;5001909;28;20180;-81
2022/01/04 11:21:35;;;;;;;624.97;577.03;;;8.70;99.90;;;;;;4998302;28;20187;-80
2022/01/04 11:24:03;;;;;;;630.70;582.73;;;8.70;99.90;;;;;;5007479;28;20226;-79
2022/01/04 11:26:30;;;;;;;624.57;576.93;;;8.70;99.90;;;;;;4982601;28;20195;-81
2022/01/04 11:28:56;;;;;;;629.53;581.63;;;8.60;99.90;;;;;;4983350;28;20561;-79
2022/01/04 11:32:01;;;;;;;628.33;580.87;;;8.60;99.90;;;;;;5003234;28;20663;-80
2022/01/04 11:34:42;;;;;;;622.70;575.30;;;8.50;99.90;;;;;;5002100;28;20188;-80
2022/01/04 11:37:20;;;;;;;624.13;577.23;;;8.50;99.90;;;;;;4999537;28;20199;-80
2022/01/04 11:39:47;;;;;;;629.17;582.03;;;8.50;99.90;;;;;;5000619;28;20568;-79
2022/01/04 11:42:35;;;;;;;621.00;573.73;;;8.50;99.90;;;;;;4985317;28;20222;-81
2022/01/04 11:45:03;;;;;;;626.00;579.67;;;8.50;99.90;;;;;;5002187;28;20187;-80
2022/01/04 11:47:34;;;;;;;623.90;577.47;;;8.40;99.90;;;;;;4983237;28;20677;-80
2022/01/04 11:50:16;;;;;;;619.97;572.83;;;8.40;99.90;;;;;;5016040;28;20211;-81
2022/01/04 11:52:46;;;;;;;616.03;568.63;;;8.40;99.90;;;;;;5004220;28;20764;-81
2022/01/04 11:55:17;;;;;;;616.03;569.20;;;8.50;99.90;;;;;;4999458;28;20192;-79
2022/01/04 11:57:42;;;;;;;535.10;495.60;;;8.50;99.90;;;;;;4999510;28;20203;-80
2022/01/04 12:00:08;;;;;;;495.27;458.70;;;8.50;99.90;;;;;;5000175;28;20199;-81
2022/01/04 12:02:37;;;;;;;498.40;462.30;;;8.50;99.90;;;;;;5000805;28;20195;-80
2022/01/04 12:05:04;;;;;;;485.97;451.00;;;8.50;99.90;;;;;;5003044;28;20568;-80
2022/01/04 12:07:39;;;;;;;474.53;440.20;;;8.60;99.90;;;;;;4998387;28;20215;-80
2022/01/04 12:10:20;;;;;;;460.57;427.30;;;8.70;99.90;;;;;;5015130;28;20319;-79
2022/01/04 12:13:00;;;;;;;441.07;409.30;;;8.80;99.90;;;;;;5000194;28;20226;-80
2022/01/04 12:15:36;;;;;;;432.47;402.40;;;8.90;99.90;;;;;;4982568;28;20206;-80
2022/01/04 12:18:29;;;;;;;412.00;382.70;;;8.90;99.90;;;;;;5000831;28;20242;-79
2022/01/04 12:20:56;;;;;;;403.83;376.23;;;8.90;99.90;;;;;;5005726;28;20195;-80
2022/01/04 12:23:31;;;;;;;399.67;373.00;;;8.80;99.90;;;;;;5007138;28;20236;-80
2022/01/04 12:26:05;;;;;;;388.90;363.27;;;8.90;99.90;;;;;;5004254;28;20191;-80
2022/01/04 12:28:35;;;;;;;381.70;356.57;;;8.90;99.90;;;;;;4999259;28;20225;-80
2022/01/04 12:31:25;;;;;;;381.50;356.53;;;8.90;99.90;;;;;;5000699;28;20215;-81
2022/01/04 12:33:55;;;;;;;379.67;354.93;;;8.80;99.90;;;;;;5000167;28;20214;-81